createdAt,value
2018-04-20T10:24:32.833Z,11.70
2018-04-20T10:26:59.428Z,8.67
2018-04-20T10:29:25.999Z,9.60
2018-04-20T10:31:52.601Z,11.70
2018-04-20T10:34:19.249Z,7.20
2018-04-20T10:36:45.829Z,7.33
2018-04-20T10:39:12.393Z,13.20
2018-04-20T10:41:38.994Z,14.30
2018-04-20T10:44:05.576Z,15.00
2018-04-20T10:46:32.132Z,8.83
2018-04-20T10:48:58.741Z,7.97
2018-04-20T10:51:25.353Z,13.30
2018-04-20T10:53:51.937Z,10.00
2018-04-20T10:56:18.517Z,11.67
2018-04-20T10:58:45.099Z,10.67
2018-04-20T11:01:11.673Z,13.23
2018-04-20T11:03:38.313Z,12.23
2018-04-20T11:06:04.825Z,9.50
2018-04-20T11:08:31.387Z,7.10
2018-04-20T11:10:57.974Z,10.30
2018-04-20T11:13:24.583Z,9.80
2018-04-20T11:15:51.174Z,8.77
2018-04-20T11:18:17.750Z,12.53
2018-04-20T11:20:44.321Z,8.10
2018-04-20T11:23:10.897Z,12.87
2018-04-20T11:25:37.496Z,14.03
2018-04-20T11:28:04.120Z,10.80
2018-04-20T11:30:30.773Z,10.43
2018-04-20T11:32:57.325Z,10.03
2018-04-20T11:35:23.892Z,16.13
2018-04-20T11:37:50.461Z,7.40
2018-04-20T11:40:17.034Z,9.33
2018-04-20T11:42:43.611Z,11.77
2018-04-20T11:45:10.203Z,7.40
2018-04-20T11:47:36.789Z,10.33
2018-04-20T11:50:03.381Z,11.37
2018-04-20T11:52:29.953Z,15.03
2018-04-20T11:54:56.537Z,10.87
2018-04-20T11:57:23.112Z,9.70
2018-04-20T11:59:49.677Z,9.13
2018-04-20T12:02:16.322Z,10.17
2018-04-20T12:04:42.817Z,9.43
2018-04-20T12:07:09.396Z,9.10
2018-04-20T12:09:35.984Z,6.20
2018-04-20T12:12:02.571Z,6.37
2018-04-20T12:14:29.197Z,7.87
2018-04-20T12:16:55.807Z,8.57
2018-04-20T12:19:22.354Z,7.17
2018-04-20T12:21:48.939Z,12.43
2018-04-20T12:24:15.498Z,8.97
2018-04-20T12:26:42.090Z,6.03
2018-04-20T12:29:08.661Z,10.03
2018-04-20T12:31:35.262Z,8.60
2018-04-20T12:34:01.809Z,8.17
2018-04-20T12:36:28.373Z,7.00
2018-04-20T12:38:54.949Z,5.97
2018-04-20T12:41:21.575Z,5.17
2018-04-20T12:43:48.115Z,6.47
2018-04-20T12:46:14.673Z,7.90
2018-04-20T12:48:41.242Z,9.90
2018-04-20T12:51:07.825Z,9.00
2018-04-20T12:53:34.395Z,6.20
2018-04-20T12:56:00.982Z,7.30
2018-04-20T12:58:27.545Z,10.57
2018-04-20T13:00:54.129Z,5.80
2018-04-20T13:03:20.694Z,7.93
2018-04-20T13:05:47.269Z,4.60
2018-04-20T13:08:13.845Z,5.07
2018-04-20T13:10:40.450Z,4.93
2018-04-20T13:13:07.044Z,5.90
2018-04-20T13:15:33.589Z,6.13
2018-04-20T13:18:00.182Z,4.50
2018-04-20T13:20:26.733Z,6.10
2018-04-20T13:22:53.300Z,8.90
2018-04-20T13:25:19.876Z,9.63
2018-04-20T13:27:46.441Z,9.97
2018-04-20T13:30:13.029Z,7.20
2018-04-20T13:32:39.589Z,6.40
2018-04-20T13:35:06.189Z,11.63
2018-04-20T13:37:32.762Z,12.73
2018-04-20T13:39:59.341Z,4.93
2018-04-20T13:42:25.911Z,4.50
2018-04-20T13:44:52.477Z,6.43
2018-04-20T13:47:19.053Z,13.47
2018-04-20T13:49:45.622Z,9.27
2018-04-20T13:52:12.226Z,8.83
2018-04-20T13:54:38.813Z,9.17
2018-04-20T13:57:05.375Z,7.10
2018-04-20T13:59:31.951Z,8.83
2018-04-20T14:01:58.523Z,9.67
2018-04-20T14:04:25.115Z,10.50
2018-04-20T14:06:51.670Z,10.33
2018-04-20T14:09:18.250Z,14.73
2018-04-20T14:11:44.821Z,11.33
2018-04-20T14:14:11.414Z,13.07
2018-04-20T14:16:38.012Z,9.70
2018-04-20T14:19:04.593Z,11.10
2018-04-20T14:21:31.163Z,9.13
2018-04-20T14:23:57.729Z,14.10
2018-04-20T14:26:24.357Z,11.57
2018-04-20T14:28:50.891Z,17.13
2018-04-20T14:31:17.489Z,11.10
2018-04-20T14:33:44.069Z,10.73
2018-04-20T14:36:10.637Z,9.07
2018-04-20T14:38:37.222Z,10.37
2018-04-20T14:41:03.800Z,11.50
2018-04-20T14:43:30.401Z,13.83
2018-04-20T14:45:56.979Z,13.13
2018-04-20T14:48:23.569Z,12.90
2018-04-20T14:50:50.148Z,11.67
2018-04-20T14:53:16.697Z,12.23
2018-04-20T14:55:43.285Z,10.50
2018-04-20T14:58:09.873Z,11.10
2018-04-20T15:00:36.477Z,13.70
2018-04-20T15:03:03.041Z,17.97
2018-04-20T15:05:29.615Z,11.20
2018-04-20T15:07:56.185Z,12.97
2018-04-20T15:10:22.766Z,13.03
2018-04-20T15:12:49.421Z,13.80
2018-04-20T15:15:16.073Z,8.73
2018-04-20T15:17:42.616Z,7.17
2018-04-20T15:20:09.208Z,10.90
2018-04-20T15:22:35.878Z,10.33
2018-04-20T15:25:02.476Z,11.83
2018-04-20T15:27:29.050Z,11.73
2018-04-20T15:29:55.613Z,10.30
2018-04-20T15:32:22.190Z,15.33
2018-04-20T15:34:48.782Z,13.20
2018-04-20T15:37:15.363Z,15.53
2018-04-20T15:39:41.954Z,11.60
2018-04-20T15:42:08.561Z,10.90
2018-04-20T15:44:35.169Z,14.03
2018-04-20T15:47:01.741Z,8.43
2018-04-20T15:49:28.323Z,10.83
2018-04-20T15:51:54.920Z,12.53
2018-04-20T15:54:23.565Z,15.90
2018-04-20T15:56:50.156Z,17.13
2018-04-20T15:59:16.729Z,8.80
2018-04-20T16:01:43.304Z,10.93
2018-04-20T16:04:09.887Z,9.67
2018-04-20T16:06:36.525Z,11.50
2018-04-20T16:09:03.093Z,9.47
2018-04-20T16:11:31.775Z,9.73
2018-04-20T16:13:58.447Z,6.63
2018-04-20T16:16:24.999Z,19.27
2018-04-20T16:18:51.573Z,15.90
2018-04-20T16:21:18.149Z,11.20
2018-04-20T16:23:44.724Z,9.37
2018-04-20T16:26:11.333Z,13.40
2018-04-20T16:28:37.911Z,11.23
2018-04-20T16:31:04.493Z,11.27
2018-04-20T16:33:31.140Z,13.83
2018-04-20T16:35:57.764Z,14.10
2018-04-20T16:38:24.336Z,11.57
2018-04-20T16:40:50.905Z,10.47
2018-04-20T16:43:17.482Z,12.77
2018-04-20T16:45:44.053Z,11.37
2018-04-20T16:48:10.640Z,14.57
2018-04-20T16:50:37.248Z,10.30
2018-04-20T16:53:03.851Z,10.90
2018-04-20T16:55:31.314Z,17.80
2018-04-20T16:58:01.273Z,16.37
2018-04-20T17:00:27.849Z,20.30
2018-04-20T17:02:54.421Z,17.00
2018-04-20T17:05:21.049Z,14.43
2018-04-20T17:07:47.594Z,12.20
2018-04-20T17:10:14.174Z,9.83
2018-04-20T17:12:40.762Z,12.23
2018-04-20T17:15:07.351Z,14.27
2018-04-20T17:17:33.925Z,15.37
2018-04-20T17:20:00.503Z,14.57
2018-04-20T17:22:27.073Z,15.97
2018-04-20T17:24:53.654Z,15.03
2018-04-20T17:27:20.256Z,15.27
2018-04-20T17:29:46.821Z,17.87
2018-04-20T17:32:13.413Z,13.87
2018-04-20T17:34:40.008Z,12.30
2018-04-20T17:37:06.617Z,12.73
2018-04-20T17:39:33.220Z,33.30
2018-04-20T17:41:59.777Z,66.73
2018-04-20T17:44:26.370Z,103.20
2018-04-20T17:46:52.949Z,115.37
2018-04-20T17:49:19.530Z,99.83
2018-04-20T17:51:46.134Z,57.10
2018-04-20T17:54:12.781Z,24.37
2018-04-20T17:56:39.415Z,23.97
2018-04-20T17:59:06.010Z,18.20
2018-04-20T18:01:32.569Z,12.27
2018-04-20T18:03:59.417Z,13.97
2018-04-20T18:06:26.011Z,13.60
2018-04-20T18:08:52.569Z,15.43
2018-04-20T18:11:19.141Z,16.70
2018-04-20T18:13:45.746Z,18.97
2018-04-20T18:16:12.343Z,13.43
2018-04-20T18:18:38.906Z,13.37
2018-04-20T18:21:05.470Z,14.60
2018-04-20T18:23:32.163Z,14.93
2018-04-20T18:25:58.710Z,11.40
2018-04-20T18:28:25.281Z,12.57
2018-04-20T18:30:51.856Z,15.57
2018-04-20T18:33:18.427Z,13.97
2018-04-20T18:35:45.027Z,9.80
2018-04-20T18:38:11.602Z,15.87
2018-04-20T18:40:38.192Z,12.77
2018-04-20T18:43:04.897Z,8.63
2018-04-20T18:45:31.477Z,13.30
2018-04-20T18:47:58.037Z,9.20
2018-04-20T18:50:24.602Z,15.50
2018-04-20T18:52:51.185Z,12.80
2018-04-20T18:55:17.784Z,11.90
2018-04-20T18:57:44.353Z,19.13
2018-04-20T19:00:10.933Z,16.47
2018-04-20T19:02:37.538Z,16.40
2018-04-20T19:05:04.110Z,12.97
2018-04-20T19:07:30.739Z,12.30
2018-04-20T19:09:57.289Z,8.20
2018-04-20T19:12:23.852Z,12.53
2018-04-20T19:14:50.459Z,9.73
2018-04-20T19:17:17.017Z,12.50
2018-04-20T19:19:43.605Z,9.63
2018-04-20T19:22:11.085Z,20.83
2018-04-20T19:24:37.665Z,15.37
2018-04-20T19:27:04.361Z,13.70
2018-04-20T19:29:30.928Z,11.63
2018-04-20T19:31:57.495Z,12.73
2018-04-20T19:34:24.120Z,13.77
2018-04-20T19:36:50.658Z,11.60
2018-04-20T19:39:17.313Z,15.10
2018-04-20T19:41:43.861Z,8.83
2018-04-20T19:44:10.443Z,14.57
2018-04-20T19:46:37.037Z,18.93
2018-04-20T19:49:03.610Z,15.70
2018-04-20T19:51:30.194Z,16.13
2018-04-20T19:53:56.765Z,14.10
2018-04-20T19:56:23.329Z,9.57
2018-04-20T19:58:49.897Z,8.20
2018-04-20T20:01:16.477Z,9.60
2018-04-20T20:03:43.069Z,12.67
2018-04-20T20:06:09.664Z,23.70
2018-04-20T20:08:36.238Z,17.20
2018-04-20T20:11:02.812Z,19.73
2018-04-20T20:13:29.401Z,19.37
2018-04-20T20:15:55.961Z,19.03
2018-04-20T20:18:22.551Z,18.23
2018-04-20T20:20:49.122Z,15.60
2018-04-20T20:23:15.697Z,17.27
2018-04-20T20:25:42.276Z,19.40
2018-04-20T20:28:08.852Z,17.03
2018-04-20T20:30:35.437Z,19.93
2018-04-20T20:33:02.049Z,19.23
2018-04-20T20:35:28.626Z,21.03
2018-04-20T20:37:55.217Z,15.70
2018-04-20T20:40:21.785Z,22.40
2018-04-20T20:42:48.369Z,18.83
2018-04-20T20:45:14.936Z,14.57
2018-04-20T20:47:41.520Z,17.57
2018-04-20T20:50:08.116Z,23.33
2018-04-20T20:52:34.703Z,18.73
2018-04-20T20:55:01.318Z,14.90
2018-04-20T20:57:27.885Z,14.07
2018-04-20T20:59:54.465Z,20.23
2018-04-20T21:02:21.037Z,16.40
2018-04-20T21:04:47.645Z,16.63
2018-04-20T21:07:14.217Z,20.30
2018-04-20T21:09:40.841Z,21.43
2018-04-20T21:12:07.425Z,16.40
2018-04-20T21:14:34.013Z,20.00
2018-04-20T21:17:00.594Z,20.90
2018-04-20T21:19:27.163Z,23.37
2018-04-20T21:21:53.745Z,21.83
2018-04-20T21:24:20.334Z,17.60
2018-04-20T21:26:46.918Z,19.90
2018-04-20T21:29:13.517Z,18.33
2018-04-20T21:31:40.097Z,24.30
2018-04-20T21:34:06.674Z,18.70
2018-04-20T21:36:33.261Z,16.43
2018-04-20T21:38:59.839Z,13.17
2018-04-20T21:41:26.408Z,16.43
2018-04-20T21:43:53.005Z,19.40
2018-04-20T21:46:19.613Z,16.00
2018-04-20T21:48:46.197Z,16.40
2018-04-20T21:51:12.773Z,14.40
2018-04-20T21:53:39.373Z,19.70
2018-04-20T21:56:05.950Z,17.07
2018-04-20T21:58:32.533Z,18.33
2018-04-20T22:00:59.115Z,16.50
2018-04-20T22:03:25.677Z,20.63
2018-04-20T22:05:52.257Z,21.70
2018-04-20T22:08:18.827Z,18.00
2018-04-20T22:10:45.426Z,22.50
2018-04-20T22:13:12.011Z,26.90
2018-04-20T22:15:38.607Z,19.57
2018-04-20T22:18:05.177Z,24.50
2018-04-20T22:20:31.784Z,20.57
2018-04-20T22:22:58.361Z,21.47
2018-04-20T22:25:24.913Z,27.13
2018-04-20T22:27:51.493Z,24.33
2018-04-20T22:30:18.067Z,23.30
2018-04-20T22:32:44.652Z,18.23
2018-04-20T22:35:11.233Z,23.47
2018-04-20T22:37:37.818Z,19.97
2018-04-20T22:40:04.399Z,19.30
2018-04-20T22:42:30.965Z,22.27
2018-04-20T22:44:57.545Z,19.83
2018-04-20T22:47:24.117Z,23.10
2018-04-20T22:49:50.769Z,18.07
2018-04-20T22:52:17.276Z,21.53
2018-04-20T22:54:43.993Z,23.47
2018-04-20T22:57:10.598Z,13.30
2018-04-20T22:59:37.162Z,15.97
2018-04-20T23:02:03.745Z,16.50
2018-04-20T23:04:30.316Z,12.90
2018-04-20T23:06:56.905Z,13.90
2018-04-20T23:09:23.484Z,12.87
2018-04-20T23:11:50.052Z,13.20
2018-04-20T23:14:16.621Z,12.90
2018-04-20T23:16:43.221Z,20.23
2018-04-20T23:19:09.865Z,13.20
2018-04-20T23:21:36.452Z,16.13
2018-04-20T23:24:03.029Z,12.90
2018-04-20T23:26:29.613Z,11.33
2018-04-20T23:28:56.173Z,13.13
2018-04-20T23:31:22.751Z,15.80
2018-04-20T23:33:49.337Z,16.30
2018-04-20T23:36:15.969Z,14.33
2018-04-20T23:38:42.605Z,17.30
2018-04-20T23:41:09.169Z,13.00
2018-04-20T23:43:35.737Z,15.07
2018-04-20T23:46:02.317Z,11.87
2018-04-20T23:48:28.888Z,12.07
2018-04-20T23:50:55.461Z,11.50
2018-04-20T23:53:22.029Z,16.13
2018-04-20T23:55:48.605Z,14.20
2018-04-20T23:58:15.173Z,11.47
